Time;durP1;ratioP1;P1;durP2;ratioP2;P2;SDS_P1;SDS_P2;PMS_P1;PMS_P2;Temp;Humidity;BMP_temperature;BMP_pressure;BME280_temperature;BME280_humidity;BME280_pressure;Samples;Min_cycle;Max_cycle;Signal;HPM_P1;HPM_P2
2023/07/31 00:02:18;;;;;;;4.47;2.22;;;;;;;;;;5021531;28;20208;-87
2023/07/31 00:04:45;;;;;;;1.80;1.80;;;;;;;;;;5008603;28;20215;-87
2023/07/31 00:07:12;;;;;;;2.13;2.03;;;;;;;;;;5010327;28;20192;-86
2023/07/31 00:09:39;;;;;;;2.05;1.88;;;;;;;;;;5006318;28;20204;-86
2023/07/31 00:12:06;;;;;;;2.40;2.05;;;;;;;;;;4999573;28;20279;-87
2023/07/31 00:14:35;;;;;;;1.85;1.75;;;;;;;;;;4991696;28;20217;-87
2023/07/31 00:17:03;;;;;;;1.50;1.50;;;;;;;;;;4992416;28;20561;-88
2023/07/31 00:19:30;;;;;;;1.80;1.70;;;;;;;;;;4991767;28;20592;-88
2023/07/31 00:21:57;;;;;;;1.80;1.50;;;;;;;;;;4992993;28;20255;-86
2023/07/31 00:24:24;;;;;;;1.92;1.67;;;;;;;;;;4992592;28;20215;-85
2023/07/31 00:26:51;;;;;;;1.95;1.85;;;;;;;;;;4992785;28;20671;-87
2023/07/31 00:29:18;;;;;;;2.97;2.20;;;;;;;;;;4972162;28;20263;-86
2023/07/31 00:31:47;;;;;;;2.38;2.03;;;;;;;;;;4977578;28;20216;-87
2023/07/31 00:34:15;;;;;;;2.25;1.95;;;;;;;;;;4973196;28;20763;-87
2023/07/31 00:36:43;;;;;;;2.47;2.28;;;;;;;;;;4976906;28;20222;-88
2023/07/31 00:39:13;;;;;;;2.05;1.95;;;;;;;;;;4972386;28;20234;-87
2023/07/31 00:41:41;;;;;;;2.30;2.20;;;;;;;;;;4971515;28;20230;-88
2023/07/31 00:44:08;;;;;;;3.53;2.70;;;;;;;;;;4981838;28;20221;-86
2023/07/31 00:46:35;;;;;;;2.38;2.28;;;;;;;;;;4972242;28;20206;-87
2023/07/31 00:49:06;;;;;;;2.40;2.30;;;;;;;;;;4972837;28;20278;-88
2023/07/31 00:51:34;;;;;;;2.47;2.33;;;;;;;;;;4972486;28;20213;-87
2023/07/31 00:54:01;;;;;;;2.58;2.47;;;;;;;;;;4987440;28;20214;-86
2023/07/31 00:56:29;;;;;;;3.10;2.90;;;;;;;;;;4987917;28;20217;-88
2023/07/31 00:58:56;;;;;;;5.25;2.92;;;;;;;;;;4971729;28;20391;-88
2023/07/31 01:01:23;;;;;;;3.22;2.92;;;;;;;;;;4972029;28;20208;-87
2023/07/31 01:03:52;;;;;;;3.33;3.03;;;;;;;;;;4971329;28;20642;-88
2023/07/31 01:06:28;;;;;;;3.65;3.20;;;;;;;;;;4973411;28;20696;-88
2023/07/31 01:09:00;;;;;;;4.35;3.95;;;;;;;;;;4975436;28;20201;-89
2023/07/31 01:11:28;;;;;;;4.40;4.00;;;;;;;;;;4973531;28;20257;-88
2023/07/31 01:13:55;;;;;;;4.95;4.15;;;;;;;;;;4983550;28;20277;-87
2023/07/31 01:16:22;;;;;;;6.65;4.57;;;;;;;;;;4990353;28;20299;-88
2023/07/31 01:18:49;;;;;;;7.38;5.30;;;;;;;;;;4972131;28;20250;-89
2023/07/31 01:21:33;;;;;;;6.65;5.75;;;;;;;;;;4972789;28;20232;-87
2023/07/31 01:24:18;;;;;;;7.47;5.72;;;;;;;;;;4972021;28;20283;-88
2023/07/31 01:26:48;;;;;;;7.18;5.32;;;;;;;;;;4971196;28;20280;-88
2023/07/31 01:29:18;;;;;;;6.10;5.47;;;;;;;;;;4976412;28;20204;-88
2023/07/31 01:31:48;;;;;;;8.98;4.95;;;;;;;;;;4971027;28;20212;-88
2023/07/31 01:34:16;;;;;;;8.18;5.53;;;;;;;;;;4971901;28;20280;-89
2023/07/31 01:36:42;;;;;;;9.30;6.10;;;;;;;;;;4970914;28;20204;-87
2023/07/31 01:39:12;;;;;;;11.43;7.80;;;;;;;;;;4972134;28;20707;-86
2023/07/31 01:41:41;;;;;;;8.18;6.22;;;;;;;;;;4970445;28;20657;-88
2023/07/31 01:44:10;;;;;;;10.73;7.38;;;;;;;;;;4971711;28;20450;-87
2023/07/31 01:46:37;;;;;;;9.27;6.63;;;;;;;;;;4970632;28;20642;-87
2023/07/31 01:49:05;;;;;;;10.60;7.50;;;;;;;;;;4971157;28;20255;-88
2023/07/31 01:51:33;;;;;;;18.08;8.68;;;;;;;;;;4971039;28;20549;-88
2023/07/31 01:54:00;;;;;;;13.80;7.80;;;;;;;;;;4971671;28;20260;-88
2023/07/31 01:56:27;;;;;;;12.13;7.93;;;;;;;;;;4971869;28;20208;-87
2023/07/31 01:58:54;;;;;;;11.23;6.88;;;;;;;;;;4970684;28;20729;-88
2023/07/31 02:01:23;;;;;;;11.15;6.90;;;;;;;;;;4971343;28;20267;-88
2023/07/31 02:03:50;;;;;;;10.68;7.63;;;;;;;;;;4971857;28;20714;-88
2023/07/31 02:06:18;;;;;;;13.13;7.95;;;;;;;;;;4971711;28;20293;-87
2023/07/31 02:08:45;;;;;;;13.40;8.30;;;;;;;;;;4970126;28;20212;-87
2023/07/31 02:11:12;;;;;;;11.05;8.40;;;;;;;;;;4971309;28;20272;-89
2023/07/31 02:13:39;;;;;;;13.57;8.35;;;;;;;;;;4970465;28;20209;-88
2023/07/31 02:16:06;;;;;;;16.45;8.80;;;;;;;;;;4971033;28;20209;-87
2023/07/31 02:18:34;;;;;;;11.27;8.70;;;;;;;;;;4970852;28;20257;-88
2023/07/31 02:20:59;;;;;;;19.65;8.15;;;;;;;;;;4971250;28;20205;-87
2023/07/31 02:23:26;;;;;;;9.98;8.02;;;;;;;;;;4983950;28;20252;-86
2023/07/31 02:25:53;;;;;;;10.68;7.97;;;;;;;;;;4980843;28;20204;-88
2023/07/31 02:28:20;;;;;;;11.73;7.40;;;;;;;;;;4971168;28;20287;-88
2023/07/31 02:30:46;;;;;;;8.82;7.05;;;;;;;;;;4972929;28;20260;-88
2023/07/31 02:33:13;;;;;;;10.43;6.85;;;;;;;;;;4974751;28;20197;-88
2023/07/31 02:35:42;;;;;;;10.18;7.38;;;;;;;;;;4974564;28;20236;-89
2023/07/31 02:38:09;;;;;;;11.25;7.95;;;;;;;;;;4975337;28;20200;-88
2023/07/31 02:40:36;;;;;;;11.23;7.70;;;;;;;;;;4973692;28;20238;-88
2023/07/31 02:43:03;;;;;;;10.30;7.35;;;;;;;;;;4974655;28;20201;-86
2023/07/31 02:45:34;;;;;;;14.98;7.50;;;;;;;;;;4988549;28;20219;-87
2023/07/31 02:48:02;;;;;;;15.45;8.73;;;;;;;;;;4994713;28;20216;-89
2023/07/31 02:50:29;;;;;;;13.25;7.22;;;;;;;;;;4992559;28;20203;-89
2023/07/31 02:52:58;;;;;;;12.45;7.07;;;;;;;;;;4995206;28;20223;-88
2023/07/31 02:55:25;;;;;;;9.15;7.85;;;;;;;;;;4994776;28;20322;-87
2023/07/31 02:57:52;;;;;;;12.90;7.30;;;;;;;;;;4993671;28;20689;-86
2023/07/31 03:00:21;;;;;;;13.93;8.23;;;;;;;;;;4994193;28;20579;-87
2023/07/31 03:02:49;;;;;;;12.23;7.65;;;;;;;;;;4993191;28;20201;-88
2023/07/31 03:05:18;;;;;;;12.60;7.57;;;;;;;;;;4993440;28;20227;-87
2023/07/31 03:07:45;;;;;;;11.88;6.65;;;;;;;;;;4994515;28;20271;-87
2023/07/31 03:10:13;;;;;;;13.00;8.05;;;;;;;;;;4996218;28;20720;-88
2023/07/31 03:12:41;;;;;;;11.45;7.13;;;;;;;;;;4996455;28;20287;-87
2023/07/31 03:15:08;;;;;;;11.25;7.53;;;;;;;;;;4996072;28;20209;-87
2023/07/31 03:17:35;;;;;;;13.20;9.00;;;;;;;;;;4993733;28;20282;-86
2023/07/31 03:20:03;;;;;;;11.88;7.70;;;;;;;;;;4992249;28;20399;-89
2023/07/31 03:22:29;;;;;;;13.77;7.72;;;;;;;;;;4990972;28;20211;-87
2023/07/31 03:24:56;;;;;;;12.35;7.53;;;;;;;;;;4992712;28;20226;-90
2023/07/31 03:27:24;;;;;;;13.30;8.35;;;;;;;;;;4986225;28;20241;-87
2023/07/31 03:29:51;;;;;;;11.18;7.72;;;;;;;;;;4986293;28;20273;-87
2023/07/31 03:32:18;;;;;;;11.10;7.78;;;;;;;;;;4992631;28;20206;-87
2023/07/31 03:34:45;;;;;;;14.20;7.65;;;;;;;;;;4990263;28;20272;-88
2023/07/31 03:37:12;;;;;;;9.40;7.32;;;;;;;;;;4994204;28;20204;-87
2023/07/31 03:39:39;;;;;;;11.00;7.10;;;;;;;;;;4993486;28;20268;-87
2023/07/31 03:42:06;;;;;;;10.80;7.78;;;;;;;;;;4993100;28;20212;-88
2023/07/31 03:44:35;;;;;;;14.60;8.90;;;;;;;;;;4993049;28;20327;-88
2023/07/31 03:47:03;;;;;;;10.30;7.35;;;;;;;;;;5002815;28;20224;-87
2023/07/31 03:49:29;;;;;;;14.90;8.70;;;;;;;;;;4990026;28;20229;-88
2023/07/31 03:51:56;;;;;;;11.23;7.22;;;;;;;;;;4991857;28;20216;-87
2023/07/31 03:54:23;;;;;;;12.48;7.82;;;;;;;;;;4991163;28;20212;-86
2023/07/31 03:56:49;;;;;;;13.23;8.20;;;;;;;;;;4991923;28;20217;-87
2023/07/31 03:59:16;;;;;;;16.67;8.57;;;;;;;;;;4991650;28;20237;-89
2023/07/31 04:01:45;;;;;;;14.43;8.07;;;;;;;;;;4993877;28;20231;-88
2023/07/31 04:04:12;;;;;;;13.65;7.65;;;;;;;;;;4991500;28;20215;-88
2023/07/31 04:06:39;;;;;;;12.65;8.57;;;;;;;;;;4992229;28;20674;-88
2023/07/31 04:09:05;;;;;;;18.23;8.13;;;;;;;;;;4991581;28;20386;-87
2023/07/31 04:11:33;;;;;;;12.15;7.70;;;;;;;;;;4992216;28;20585;-89
2023/07/31 04:14:03;;;;;;;13.48;8.27;;;;;;;;;;4992163;28;20686;-89
2023/07/31 04:16:30;;;;;;;12.55;8.23;;;;;;;;;;4991807;28;20562;-89
2023/07/31 04:18:58;;;;;;;15.77;8.43;;;;;;;;;;4992904;28;20229;-86
2023/07/31 04:21:25;;;;;;;12.90;8.35;;;;;;;;;;4997545;28;20205;-87
2023/07/31 04:23:56;;;;;;;12.05;6.70;;;;;;;;;;4996809;28;20208;-88
2023/07/31 04:26:22;;;;;;;14.02;7.85;;;;;;;;;;5011981;28;20197;-87
2023/07/31 04:28:54;;;;;;;10.57;7.95;;;;;;;;;;5004191;28;20198;-87
2023/07/31 04:31:24;;;;;;;12.15;7.63;;;;;;;;;;4974979;28;20198;-87
2023/07/31 04:33:51;;;;;;;12.05;7.18;;;;;;;;;;4974228;28;20214;-87
2023/07/31 04:36:20;;;;;;;13.93;8.07;;;;;;;;;;4976374;28;20206;-86
2023/07/31 04:38:46;;;;;;;13.90;8.02;;;;;;;;;;4973876;28;20205;-87
2023/07/31 04:41:13;;;;;;;12.52;7.22;;;;;;;;;;4990284;28;20257;-87
2023/07/31 04:43:41;;;;;;;11.60;7.50;;;;;;;;;;4988755;28;20249;-86
2023/07/31 04:46:08;;;;;;;15.77;7.35;;;;;;;;;;4973149;28;20663;-88
2023/07/31 04:48:34;;;;;;;13.07;7.45;;;;;;;;;;4971830;28;20209;-88
2023/07/31 04:51:04;;;;;;;10.93;6.90;;;;;;;;;;4971730;28;20209;-89
2023/07/31 04:53:35;;;;;;;10.25;7.80;;;;;;;;;;4970931;28;20203;-86
2023/07/31 04:56:02;;;;;;;15.57;7.72;;;;;;;;;;4972633;28;20208;-87
2023/07/31 04:58:29;;;;;;;11.18;6.65;;;;;;;;;;4972134;28;20308;-87
2023/07/31 05:00:56;;;;;;;11.95;7.75;;;;;;;;;;4972064;28;20324;-90
2023/07/31 05:03:23;;;;;;;8.15;6.90;;;;;;;;;;4973344;28;20547;-87
2023/07/31 05:05:50;;;;;;;9.65;7.70;;;;;;;;;;4971565;28;20264;-89
2023/07/31 05:08:18;;;;;;;10.35;7.13;;;;;;;;;;4972192;28;20594;-88
2023/07/31 05:10:49;;;;;;;12.20;6.82;;;;;;;;;;4973157;28;20570;-88
2023/07/31 05:13:17;;;;;;;6.80;6.00;;;;;;;;;;4972029;28;20214;-87
2023/07/31 05:15:44;;;;;;;6.47;5.80;;;;;;;;;;4972033;28;20270;-88
2023/07/31 05:18:11;;;;;;;9.05;6.93;;;;;;;;;;4971458;28;20237;-88
2023/07/31 05:20:38;;;;;;;9.00;7.10;;;;;;;;;;4971820;28;20604;-88
2023/07/31 05:23:07;;;;;;;5.93;5.53;;;;;;;;;;4971641;28;20209;-88
2023/07/31 05:25:34;;;;;;;7.20;6.47;;;;;;;;;;4971111;28;20276;-89
2023/07/31 05:28:05;;;;;;;5.93;4.70;;;;;;;;;;4970750;28;20194;-88
2023/07/31 05:30:32;;;;;;;5.93;5.43;;;;;;;;;;5003564;28;20271;-87
2023/07/31 05:33:02;;;;;;;5.63;5.03;;;;;;;;;;5009830;28;20215;-88
2023/07/31 05:35:29;;;;;;;7.30;6.00;;;;;;;;;;5010043;28;20205;-89
2023/07/31 05:37:56;;;;;;;7.43;5.75;;;;;;;;;;5009210;28;20235;-88
2023/07/31 05:40:23;;;;;;;6.30;5.30;;;;;;;;;;5010573;28;20293;-88
2023/07/31 05:42:50;;;;;;;4.85;4.30;;;;;;;;;;5009957;28;20193;-88
2023/07/31 05:45:21;;;;;;;7.15;4.65;;;;;;;;;;5008395;28;20735;-87
2023/07/31 05:47:48;;;;;;;4.57;4.28;;;;;;;;;;5009902;28;20195;-88
2023/07/31 05:50:15;;;;;;;4.18;3.83;;;;;;;;;;5010141;28;20207;-88
2023/07/31 05:52:48;;;;;;;4.00;3.70;;;;;;;;;;5011009;28;20216;-88
2023/07/31 05:55:16;;;;;;;4.70;4.32;;;;;;;;;;5011761;28;20197;-87
2023/07/31 05:57:43;;;;;;;3.35;3.15;;;;;;;;;;5011182;28;20208;-87
2023/07/31 06:00:10;;;;;;;3.55;3.35;;;;;;;;;;4979272;28;20234;-87
2023/07/31 06:02:41;;;;;;;3.58;3.38;;;;;;;;;;4974582;28;20230;-87
2023/07/31 06:05:09;;;;;;;3.22;3.08;;;;;;;;;;4974106;28;20269;-87
2023/07/31 06:07:37;;;;;;;2.85;2.65;;;;;;;;;;4972421;28;20229;-88
2023/07/31 06:10:05;;;;;;;3.95;2.60;;;;;;;;;;4972094;28;20626;-86
2023/07/31 06:12:32;;;;;;;3.03;2.88;;;;;;;;;;4971378;28;20232;-86
2023/07/31 06:14:59;;;;;;;2.25;2.15;;;;;;;;;;4971460;28;20228;-88
2023/07/31 06:17:26;;;;;;;2.50;2.40;;;;;;;;;;4969534;28;20202;-88
2023/07/31 06:19:55;;;;;;;2.15;2.05;;;;;;;;;;4970604;28;20722;-87
2023/07/31 06:22:23;;;;;;;2.40;2.13;;;;;;;;;;4970212;28;20218;-87
2023/07/31 06:24:49;;;;;;;1.58;1.58;;;;;;;;;;4971343;28;20221;-88
2023/07/31 06:27:17;;;;;;;1.70;1.60;;;;;;;;;;4971290;28;20584;-88
2023/07/31 06:29:43;;;;;;;1.65;1.65;;;;;;;;;;4970380;28;20217;-87
2023/07/31 06:32:16;;;;;;;1.83;1.83;;;;;;;;;;4972670;28;20210;-88
2023/07/31 06:34:46;;;;;;;1.67;1.40;;;;;;;;;;4973094;28;20209;-86
2023/07/31 06:37:17;;;;;;;1.50;1.40;;;;;;;;;;4998088;28;20210;-87
2023/07/31 06:39:44;;;;;;;1.73;1.63;;;;;;;;;;4988170;28;20280;-87
2023/07/31 06:42:11;;;;;;;2.20;2.10;;;;;;;;;;4992132;28;20209;-87
2023/07/31 06:44:38;;;;;;;1.52;1.52;;;;;;;;;;4994392;28;20201;-87
2023/07/31 06:47:06;;;;;;;1.50;1.40;;;;;;;;;;4983820;28;20209;-88
2023/07/31 06:49:34;;;;;;;1.58;1.48;;;;;;;;;;4991125;28;20288;-87
2023/07/31 06:52:01;;;;;;;2.10;2.00;;;;;;;;;;4989517;28;20626;-90
2023/07/31 06:54:30;;;;;;;4.68;2.00;;;;;;;;;;4987317;28;20230;-88
2023/07/31 06:56:57;;;;;;;1.70;1.60;;;;;;;;;;4964481;28;20229;-87
2023/07/31 06:59:24;;;;;;;3.03;1.42;;;;;;;;;;4990823;28;20308;-89
2023/07/31 07:01:51;;;;;;;4.03;2.42;;;;;;;;;;4993302;28;20245;-88
2023/07/31 07:04:18;;;;;;;1.50;1.40;;;;;;;;;;4990476;28;20657;-86
2023/07/31 07:06:47;;;;;;;1.30;1.30;;;;;;;;;;4989313;28;20256;-86
2023/07/31 07:09:14;;;;;;;1.60;1.50;;;;;;;;;;4992210;28;20229;-88
2023/07/31 07:11:43;;;;;;;1.80;1.70;;;;;;;;;;4990500;28;20312;-87
2023/07/31 07:14:11;;;;;;;2.72;2.30;;;;;;;;;;4990936;28;20233;-88
2023/07/31 07:16:40;;;;;;;1.27;1.27;;;;;;;;;;4990616;28;20228;-89
2023/07/31 07:19:08;;;;;;;1.50;1.50;;;;;;;;;;4996848;28;20229;-87
2023/07/31 07:21:35;;;;;;;1.60;1.50;;;;;;;;;;4994579;28;20243;-86
2023/07/31 07:24:02;;;;;;;1.20;1.10;;;;;;;;;;4998206;28;20251;-87
2023/07/31 07:26:29;;;;;;;1.30;1.30;;;;;;;;;;4993005;28;20443;-87
2023/07/31 07:28:58;;;;;;;1.30;1.30;;;;;;;;;;4992544;28;20235;-89
2023/07/31 07:31:25;;;;;;;1.15;1.15;;;;;;;;;;4993519;28;20651;-90
2023/07/31 07:33:53;;;;;;;2.05;1.52;;;;;;;;;;4993832;28;20649;-89
2023/07/31 07:36:19;;;;;;;1.15;1.15;;;;;;;;;;4995985;28;20612;-88
2023/07/31 07:38:46;;;;;;;1.77;1.67;;;;;;;;;;5005294;28;20245;-89
2023/07/31 07:41:13;;;;;;;1.33;1.23;;;;;;;;;;4997207;28;20244;-89
2023/07/31 07:43:41;;;;;;;1.20;1.20;;;;;;;;;;4996134;28;20232;-90
2023/07/31 07:46:10;;;;;;;1.33;1.33;;;;;;;;;;4991974;28;20225;-88
2023/07/31 07:48:37;;;;;;;1.83;1.40;;;;;;;;;;4993189;28;20231;-89
2023/07/31 07:51:04;;;;;;;1.40;1.35;;;;;;;;;;4994851;28;20231;-90
2023/07/31 07:53:34;;;;;;;1.55;1.55;;;;;;;;;;4990904;28;20240;-90
2023/07/31 07:56:01;;;;;;;1.40;1.40;;;;;;;;;;4990792;28;20233;-89
2023/07/31 07:58:28;;;;;;;1.48;1.48;;;;;;;;;;4991815;28;20740;-90
2023/07/31 08:00:56;;;;;;;1.40;1.40;;;;;;;;;;4997145;28;20232;-90
2023/07/31 08:03:24;;;;;;;1.13;1.13;;;;;;;;;;4996038;28;20232;-89
2023/07/31 08:05:51;;;;;;;1.13;1.13;;;;;;;;;;4990986;28;20232;-90
2023/07/31 08:08:19;;;;;;;1.60;1.40;;;;;;;;;;4990906;28;20239;-91
2023/07/31 08:10:46;;;;;;;1.38;1.38;;;;;;;;;;4991750;28;20243;-90
2023/07/31 08:13:13;;;;;;;2.97;1.50;;;;;;;;;;4990603;28;20228;-89
2023/07/31 08:15:42;;;;;;;1.52;1.42;;;;;;;;;;4993895;28;20236;-90
2023/07/31 08:18:09;;;;;;;1.65;1.65;;;;;;;;;;4997911;28;20233;-89
2023/07/31 08:20:38;;;;;;;1.70;1.50;;;;;;;;;;4992344;28;20251;-90
2023/07/31 08:23:07;;;;;;;2.05;1.45;;;;;;;;;;4984267;28;20237;-89
2023/07/31 08:25:35;;;;;;;1.30;1.30;;;;;;;;;;4991475;28;20229;-87
2023/07/31 08:28:03;;;;;;;1.30;1.30;;;;;;;;;;4991268;28;20283;-90
2023/07/31 08:30:30;;;;;;;3.17;1.52;;;;;;;;;;4991521;28;20304;-89
2023/07/31 08:32:57;;;;;;;1.52;1.42;;;;;;;;;;4991672;28;20240;-88
2023/07/31 08:35:25;;;;;;;1.65;1.60;;;;;;;;;;4992779;28;20329;-89
2023/07/31 08:37:55;;;;;;;3.45;1.50;;;;;;;;;;4993088;28;20300;-90
2023/07/31 08:40:26;;;;;;;2.17;1.10;;;;;;;;;;4990642;28;20237;-90
2023/07/31 08:42:56;;;;;;;1.33;1.33;;;;;;;;;;4992827;28;20680;-90
2023/07/31 08:45:23;;;;;;;1.30;1.30;;;;;;;;;;4993010;28;20229;-89
2023/07/31 08:47:52;;;;;;;2.28;1.52;;;;;;;;;;4990961;28;20272;-91
2023/07/31 08:50:22;;;;;;;1.27;1.27;;;;;;;;;;4990881;28;20229;-90
2023/07/31 08:52:50;;;;;;;1.13;1.02;;;;;;;;;;4991042;28;20221;-88
2023/07/31 08:55:24;;;;;;;1.60;1.50;;;;;;;;;;4990524;28;20233;-91
2023/07/31 08:57:52;;;;;;;1.45;1.30;;;;;;;;;;4993676;28;20356;-90
2023/07/31 09:00:20;;;;;;;1.50;1.40;;;;;;;;;;4999787;28;20284;-90
2023/07/31 09:02:55;;;;;;;5.28;1.20;;;;;;;;;;5000918;28;20230;-89
2023/07/31 09:05:23;;;;;;;1.35;1.35;;;;;;;;;;5002954;28;20239;-89
2023/07/31 09:07:56;;;;;;;1.48;1.48;;;;;;;;;;5004535;28;20217;-89
2023/07/31 09:10:29;;;;;;;2.75;1.15;;;;;;;;;;5002169;28;20328;-90
2023/07/31 09:12:59;;;;;;;3.28;1.35;;;;;;;;;;5002252;28;20233;-90
2023/07/31 09:15:28;;;;;;;1.30;1.30;;;;;;;;;;5001466;28;20284;-91
2023/07/31 09:18:00;;;;;;;1.60;1.50;;;;;;;;;;5002788;28;20333;-90
2023/07/31 09:20:31;;;;;;;1.25;1.25;;;;;;;;;;5001949;28;20236;-92
2023/07/31 09:23:09;;;;;;;1.05;1.05;;;;;;;;;;4999864;28;20233;-91
2023/07/31 09:25:46;;;;;;;1.50;1.50;;;;;;;;;;4996682;28;20275;-92
2023/07/31 09:28:16;;;;;;;1.90;1.80;;;;;;;;;;4997850;28;20239;-90
2023/07/31 09:30:48;;;;;;;2.88;1.50;;;;;;;;;;4992862;28;20221;-91
2023/07/31 09:33:20;;;;;;;2.55;1.38;;;;;;;;;;4999017;28;20217;-90
2023/07/31 09:35:55;;;;;;;1.77;1.73;;;;;;;;;;5010017;28;20271;-91
2023/07/31 09:38:25;;;;;;;1.00;1.00;;;;;;;;;;5020653;28;20274;-90
2023/07/31 09:41:11;;;;;;;1.20;1.20;;;;;;;;;;5021124;28;20248;-91
2023/07/31 09:43:40;;;;;;;1.40;1.40;;;;;;;;;;5013715;28;20312;-90
2023/07/31 09:46:15;;;;;;;1.58;1.58;;;;;;;;;;5020916;28;20323;-91
2023/07/31 09:48:45;;;;;;;1.40;1.40;;;;;;;;;;5012457;28;20248;-90
2023/07/31 09:51:17;;;;;;;1.52;1.42;;;;;;;;;;5011526;28;20685;-91
2023/07/31 09:53:53;;;;;;;1.58;1.50;;;;;;;;;;5011040;28;20260;-89
2023/07/31 09:56:25;;;;;;;1.10;1.10;;;;;;;;;;5012703;28;20220;-90
2023/07/31 09:59:12;;;;;;;1.55;1.48;;;;;;;;;;5011936;28;20229;-89
2023/07/31 10:01:47;;;;;;;4.22;2.25;;;;;;;;;;4986772;28;20240;-90
2023/07/31 10:04:31;;;;;;;1.63;1.52;;;;;;;;;;5012848;28;20279;-90
2023/07/31 10:07:00;;;;;;;4.72;1.38;;;;;;;;;;4974807;28;20236;-91
2023/07/31 10:09:30;;;;;;;1.20;1.20;;;;;;;;;;4972730;28;20233;-91
2023/07/31 10:12:09;;;;;;;1.15;1.15;;;;;;;;;;4971232;28;20222;-90
2023/07/31 10:14:36;;;;;;;1.10;1.10;;;;;;;;;;4972576;28;20232;-90
2023/07/31 10:17:06;;;;;;;1.10;1.10;;;;;;;;;;4971876;28;20238;-90
2023/07/31 10:19:33;;;;;;;4.30;1.35;;;;;;;;;;4971343;28;20246;-89
2023/07/31 10:22:01;;;;;;;1.08;1.08;;;;;;;;;;4972975;28;20241;-92
2023/07/31 10:24:29;;;;;;;1.10;1.10;;;;;;;;;;4970461;28;20226;-91
2023/07/31 10:26:57;;;;;;;1.00;1.00;;;;;;;;;;4972242;28;20308;-91
2023/07/31 10:29:27;;;;;;;1.13;1.13;;;;;;;;;;4972803;28;20280;-92
2023/07/31 10:31:54;;;;;;;1.30;1.20;;;;;;;;;;4970269;28;20222;-88
2023/07/31 10:34:23;;;;;;;1.23;1.23;;;;;;;;;;4970344;28;20261;-89
2023/07/31 10:36:50;;;;;;;1.17;1.17;;;;;;;;;;4982975;28;20256;-90
2023/07/31 10:39:36;;;;;;;0.90;0.90;;;;;;;;;;4991602;28;20241;-88
2023/07/31 10:42:11;;;;;;;1.08;1.08;;;;;;;;;;4995738;28;20236;-88
2023/07/31 10:44:39;;;;;;;1.17;1.17;;;;;;;;;;5000649;28;20220;-88
2023/07/31 10:47:07;;;;;;;0.90;0.90;;;;;;;;;;5006924;28;20231;-89
2023/07/31 10:49:36;;;;;;;1.10;1.10;;;;;;;;;;5010484;28;20658;-88
2023/07/31 10:52:04;;;;;;;0.90;0.90;;;;;;;;;;4999448;28;20705;-88
2023/07/31 10:54:31;;;;;;;1.10;1.10;;;;;;;;;;4994561;28;20198;-89
2023/07/31 10:56:59;;;;;;;1.13;1.13;;;;;;;;;;4996193;28;20658;-90
2023/07/31 10:59:28;;;;;;;0.90;0.90;;;;;;;;;;4995366;28;20205;-91
2023/07/31 11:01:57;;;;;;;0.98;0.98;;;;;;;;;;4994810;28;20229;-90
2023/07/31 11:04:26;;;;;;;0.95;0.95;;;;;;;;;;4993960;28;20225;-89
2023/07/31 11:07:02;;;;;;;6.53;1.27;;;;;;;;;;4996016;28;20206;-90
2023/07/31 11:09:31;;;;;;;0.90;0.90;;;;;;;;;;4997410;28;20208;-90
2023/07/31 11:11:59;;;;;;;0.95;0.95;;;;;;;;;;4996894;28;20213;-89
2023/07/31 11:14:28;;;;;;;1.52;0.88;;;;;;;;;;4995677;28;20190;-89
2023/07/31 11:16:55;;;;;;;1.20;1.05;;;;;;;;;;4996153;28;20225;-89
2023/07/31 11:19:41;;;;;;;0.90;0.90;;;;;;;;;;4999653;28;20233;-89
2023/07/31 11:22:10;;;;;;;3.97;0.90;;;;;;;;;;4990770;28;20244;-90
2023/07/31 11:24:44;;;;;;;1.00;1.00;;;;;;;;;;4995522;28;20193;-90
2023/07/31 11:27:11;;;;;;;0.70;0.70;;;;;;;;;;4994753;28;20699;-90
2023/07/31 11:29:49;;;;;;;;;;;;;;;;;;;;;
2023/07/31 11:32:45;;;;;;;0.88;0.88;;;;;;;;;;4994641;28;20201;-87
2023/07/31 11:38:24;;;;;;;0.90;0.90;;;;;;;;;;4992823;28;20220;-89
2023/07/31 11:41:29;;;;;;;;;;;;;;;;;;;;;
2023/07/31 11:44:27;;;;;;;;;;;;;;;;;;;;;
2023/07/31 11:47:02;;;;;;;1.23;1.15;;;;;;;;;;4993588;28;20220;-89
2023/07/31 11:49:41;;;;;;;;;;;;;;;;;;;;;
2023/07/31 11:52:10;;;;;;;1.75;1.73;;;;;;;;;;4993790;28;20189;-88
2023/07/31 11:54:38;;;;;;;1.20;1.10;;;;;;;;;;4993287;28;20217;-88
2023/07/31 11:57:09;;;;;;;2.33;1.23;;;;;;;;;;4993553;28;20377;-89
2023/07/31 12:00:04;;;;;;;1.30;1.30;;;;;;;;;;4993397;28;20212;-89
2023/07/31 12:02:47;;;;;;;1.42;1.42;;;;;;;;;;4992783;28;20311;-89
2023/07/31 12:05:30;;;;;;;1.50;1.40;;;;;;;;;;4951898;29;20306;-89
2023/07/31 12:11:27;;;;;;;1.23;1.23;;;;;;;;;;4886029;29;20322;-90
2023/07/31 12:14:14;;;;;;;1.80;1.70;;;;;;;;;;4894497;29;20212;-88
2023/07/31 12:17:06;;;;;;;;;;;;;;;;;;;;;
2023/07/31 12:19:37;;;;;;;2.10;2.00;;;;;;;;;;4945786;29;20311;-88
2023/07/31 12:22:12;;;;;;;2.50;2.40;;;;;;;;;;4944833;28;20242;-89
2023/07/31 12:24:40;;;;;;;3.17;2.58;;;;;;;;;;4993059;28;20221;-89
2023/07/31 12:27:10;;;;;;;2.88;2.78;;;;;;;;;;4993164;28;20278;-88
2023/07/31 12:29:37;;;;;;;2.30;2.20;;;;;;;;;;4992105;28;20221;-89
2023/07/31 12:32:05;;;;;;;2.80;2.70;;;;;;;;;;4993671;28;20284;-88
2023/07/31 12:34:33;;;;;;;2.10;2.00;;;;;;;;;;4992858;28;20241;-88
2023/07/31 12:37:05;;;;;;;2.97;2.58;;;;;;;;;;4992631;28;20206;-89
2023/07/31 12:39:35;;;;;;;3.05;2.85;;;;;;;;;;4993648;28;20284;-89
2023/07/31 12:42:02;;;;;;;2.30;2.20;;;;;;;;;;4993843;28;20257;-88
2023/07/31 12:44:30;;;;;;;3.90;2.53;;;;;;;;;;4994045;28;20543;-88
2023/07/31 12:46:57;;;;;;;2.40;2.30;;;;;;;;;;5008773;28;20296;-90
2023/07/31 12:49:31;;;;;;;2.53;2.42;;;;;;;;;;5002342;28;20585;-89
2023/07/31 12:51:59;;;;;;;2.78;2.67;;;;;;;;;;4995869;28;20185;-88
2023/07/31 12:54:28;;;;;;;2.40;2.30;;;;;;;;;;4992824;28;20284;-88
2023/07/31 12:56:55;;;;;;;2.92;2.80;;;;;;;;;;4992480;28;20201;-88
2023/07/31 12:59:22;;;;;;;3.15;2.90;;;;;;;;;;4991701;28;20252;-90
2023/07/31 13:01:49;;;;;;;2.83;2.63;;;;;;;;;;4992399;28;20292;-88
2023/07/31 13:04:16;;;;;;;3.20;3.00;;;;;;;;;;4992380;28;20215;-90
2023/07/31 13:06:43;;;;;;;2.97;2.88;;;;;;;;;;4994227;28;20555;-89
2023/07/31 13:09:10;;;;;;;3.13;3.03;;;;;;;;;;4992291;28;20201;-88
2023/07/31 13:11:39;;;;;;;5.28;3.70;;;;;;;;;;4992398;28;20217;-88
2023/07/31 13:14:06;;;;;;;3.78;3.47;;;;;;;;;;4993281;28;20201;-89
2023/07/31 13:16:34;;;;;;;4.72;2.88;;;;;;;;;;4995095;28;20209;-89
2023/07/31 13:19:02;;;;;;;2.75;2.45;;;;;;;;;;5007667;28;20201;-87
2023/07/31 13:21:31;;;;;;;2.83;2.63;;;;;;;;;;5003583;28;20213;-91
2023/07/31 13:24:01;;;;;;;2.70;2.60;;;;;;;;;;5000386;28;20551;-91
2023/07/31 13:26:30;;;;;;;2.60;2.50;;;;;;;;;;4995347;28;20688;-93
2023/07/31 13:29:01;;;;;;;2.83;2.53;;;;;;;;;;4991619;28;20237;-90
2023/07/31 13:31:31;;;;;;;2.88;2.40;;;;;;;;;;4991190;28;20193;-89
2023/07/31 13:33:59;;;;;;;2.70;2.58;;;;;;;;;;4991569;28;20213;-90
2023/07/31 13:36:26;;;;;;;1.90;1.80;;;;;;;;;;4992128;28;20244;-90
2023/07/31 13:38:54;;;;;;;2.25;2.15;;;;;;;;;;4990923;28;20220;-90
2023/07/31 13:41:22;;;;;;;2.90;2.15;;;;;;;;;;4991892;28;20229;-91
2023/07/31 13:43:52;;;;;;;2.67;2.58;;;;;;;;;;4991551;28;20229;-89
2023/07/31 14:04:47;;;;;;;;;;;;;;;;;;;;;
2023/07/31 14:22:43;;;;;;;;;;;;;;;;;;;;;
2023/07/31 14:25:46;;;;;;;;;;;;;;;;;;;;;
2023/07/31 14:41:01;;;;;;;2.00;1.90;;;;;;;;;;4845579;29;20440;-87
2023/07/31 14:46:26;;;;;;;3.70;1.60;;;;;;;;;;4860611;29;20217;-89
2023/07/31 14:49:00;;;;;;;2.08;1.98;;;;;;;;;;4956555;29;20210;-90
2023/07/31 14:51:38;;;;;;;1.70;1.70;;;;;;;;;;4970738;28;20193;-89
2023/07/31 14:54:13;;;;;;;1.65;1.65;;;;;;;;;;5015335;28;20197;-89
2023/07/31 14:56:40;;;;;;;2.05;1.95;;;;;;;;;;5003717;28;20209;-88
2023/07/31 14:59:09;;;;;;;1.90;1.80;;;;;;;;;;5004795;28;20304;-89
2023/07/31 15:01:38;;;;;;;2.22;2.13;;;;;;;;;;5000681;28;20212;-89
2023/07/31 15:04:05;;;;;;;5.85;1.90;;;;;;;;;;5000505;28;20225;-89
2023/07/31 15:06:35;;;;;;;1.95;1.85;;;;;;;;;;4997548;28;20658;-88
2023/07/31 15:09:02;;;;;;;1.98;1.88;;;;;;;;;;4981412;28;20213;-90
2023/07/31 15:11:33;;;;;;;1.58;1.58;;;;;;;;;;4998550;28;20228;-90
2023/07/31 15:14:05;;;;;;;1.60;1.50;;;;;;;;;;4997677;28;20282;-89
2023/07/31 15:16:32;;;;;;;1.65;1.60;;;;;;;;;;4997347;28;20623;-88
2023/07/31 15:19:03;;;;;;;1.55;1.33;;;;;;;;;;4998918;28;20201;-89
2023/07/31 15:21:39;;;;;;;7.07;1.50;;;;;;;;;;4997769;28;20641;-89
2023/07/31 15:24:06;;;;;;;1.45;1.35;;;;;;;;;;4997800;28;20232;-87
2023/07/31 15:26:33;;;;;;;1.40;1.40;;;;;;;;;;4998483;28;20201;-86
2023/07/31 15:29:02;;;;;;;1.30;1.30;;;;;;;;;;4996849;28;20201;-88
2023/07/31 15:31:29;;;;;;;1.00;1.00;;;;;;;;;;4997074;28;20311;-87
2023/07/31 15:33:56;;;;;;;1.30;1.30;;;;;;;;;;4996987;28;20645;-87
2023/07/31 15:36:32;;;;;;;1.35;1.35;;;;;;;;;;4996494;28;20204;-87
2023/07/31 15:38:59;;;;;;;1.55;1.00;;;;;;;;;;4995594;28;20231;-88
2023/07/31 15:41:26;;;;;;;1.77;1.67;;;;;;;;;;4994115;28;20261;-88
2023/07/31 15:43:53;;;;;;;1.30;1.30;;;;;;;;;;4993919;28;20673;-88
2023/07/31 15:46:21;;;;;;;1.38;1.20;;;;;;;;;;4997601;28;20593;-90
2023/07/31 15:49:01;;;;;;;1.42;1.33;;;;;;;;;;4997233;28;20749;-89
2023/07/31 15:51:32;;;;;;;1.33;1.25;;;;;;;;;;5002450;28;20706;-88
2023/07/31 15:54:03;;;;;;;1.70;1.60;;;;;;;;;;5005585;28;20209;-90
2023/07/31 15:56:34;;;;;;;2.08;1.42;;;;;;;;;;5007179;28;20631;-87
2023/07/31 15:59:22;;;;;;;1.25;1.25;;;;;;;;;;5003766;28;20206;-90